createdAt,value
2022-12-09T00:02:05.478Z,82.90
2022-12-09T00:04:32.445Z,82.78
2022-12-09T00:06:59.215Z,82.46
2022-12-09T00:09:26.041Z,82.93
2022-12-09T00:11:52.927Z,82.88
2022-12-09T00:14:19.747Z,82.48
2022-12-09T00:16:46.580Z,82.50
2022-12-09T00:19:13.456Z,82.46
2022-12-09T00:21:40.064Z,82.40
2022-12-09T00:24:08.083Z,82.51
2022-12-09T00:26:35.365Z,82.74
2022-12-09T00:29:02.369Z,82.53
2022-12-09T00:31:32.794Z,82.42
2022-12-09T00:34:01.917Z,82.45
2022-12-09T00:36:29.466Z,82.71
2022-12-09T00:38:57.940Z,82.79
2022-12-09T00:41:24.782Z,82.76
2022-12-09T00:43:51.928Z,82.81
2022-12-09T00:46:19.338Z,83.40
2022-12-09T00:48:47.103Z,83.01
2022-12-09T00:51:16.947Z,82.90
2022-12-09T00:53:44.039Z,83.80
2022-12-09T00:56:11.522Z,83.16
2022-12-09T00:58:38.259Z,83.67
2022-12-09T01:01:05.345Z,84.28
2022-12-09T01:03:32.556Z,84.07
2022-12-09T01:05:59.915Z,84.46
2022-12-09T01:08:26.702Z,84.45
2022-12-09T01:10:53.371Z,84.98
2022-12-09T01:13:20.122Z,84.95
2022-12-09T01:15:46.885Z,84.95
2022-12-09T01:18:13.646Z,85.26
2022-12-09T01:20:40.427Z,85.08
2022-12-09T01:23:07.240Z,84.80
2022-12-09T01:25:33.828Z,85.27
2022-12-09T01:28:00.983Z,85.12
2022-12-09T01:30:27.763Z,85.06
2022-12-09T01:32:54.606Z,85.33
2022-12-09T01:35:21.348Z,85.51
2022-12-09T01:37:47.978Z,85.47
2022-12-09T01:40:17.189Z,85.56
2022-12-09T01:42:44.446Z,85.44
2022-12-09T01:45:20.215Z,85.35
2022-12-09T01:47:48.774Z,85.74
2022-12-09T01:50:17.654Z,85.73
2022-12-09T01:52:46.695Z,85.55
2022-12-09T01:55:14.032Z,85.49
2022-12-09T01:57:41.614Z,85.27
2022-12-09T02:00:15.675Z,85.41
2022-12-09T02:02:45.589Z,85.37
2022-12-09T02:05:12.737Z,84.90
2022-12-09T02:07:39.649Z,85.28
2022-12-09T02:10:11.116Z,85.15
2022-12-09T02:12:49.725Z,85.13
2022-12-09T02:15:35.191Z,84.83
2022-12-09T02:18:07.862Z,84.88
2022-12-09T02:21:09.465Z,84.80
2022-12-09T02:23:51.695Z,84.92
2022-12-09T02:26:37.276Z,84.12
2022-12-09T02:29:47.204Z,84.25
2022-12-09T02:32:39.938Z,84.39
2022-12-09T02:35:19.584Z,84.69
2022-12-09T02:38:01.166Z,84.45
2022-12-09T02:40:43.282Z,84.15
2022-12-09T02:43:11.689Z,84.67
2022-12-09T02:45:41.413Z,84.64
2022-12-09T02:48:11.228Z,84.86
2022-12-09T02:50:40.600Z,84.78
2022-12-09T02:53:11.203Z,84.92
2022-12-09T02:55:40.998Z,84.95
2022-12-09T02:58:07.940Z,84.28
2022-12-09T03:00:34.987Z,84.77
2022-12-09T03:03:04.243Z,84.70
2022-12-09T03:05:42.223Z,84.21
2022-12-09T03:08:30.771Z,84.80
2022-12-09T03:11:05.782Z,84.31
2022-12-09T03:13:51.223Z,84.27
2022-12-09T03:16:37.640Z,84.39
2022-12-09T03:19:29.117Z,84.10
2022-12-09T03:22:03.410Z,84.90
2022-12-09T03:24:37.498Z,84.68
2022-12-09T03:27:08.052Z,85.11
2022-12-09T03:29:38.829Z,85.15
2022-12-09T03:32:08.354Z,85.26
2022-12-09T03:34:40.821Z,86.10
2022-12-09T03:37:09.485Z,85.59
2022-12-09T03:39:38.772Z,85.46
2022-12-09T03:42:14.696Z,85.58
2022-12-09T03:44:56.762Z,85.30
2022-12-09T03:47:23.795Z,85.29
2022-12-09T03:49:50.842Z,85.21
2022-12-09T03:52:25.182Z,85.07
2022-12-09T03:54:59.004Z,85.53
2022-12-09T03:57:26.015Z,85.01
2022-12-09T03:59:59.988Z,85.74
2022-12-09T04:02:27.443Z,85.84
2022-12-09T04:04:54.351Z,85.75
2022-12-09T04:07:20.939Z,85.92
2022-12-09T04:09:47.865Z,86.18
2022-12-09T04:12:14.602Z,86.19
2022-12-09T04:14:41.189Z,86.39
2022-12-09T04:17:08.331Z,86.37
2022-12-09T04:19:35.250Z,87.15
2022-12-09T04:22:01.933Z,86.87
2022-12-09T04:24:28.899Z,87.60
2022-12-09T04:26:55.853Z,87.30
2022-12-09T04:29:22.549Z,87.47
2022-12-09T04:31:49.669Z,87.82
2022-12-09T04:34:16.794Z,87.58
2022-12-09T04:36:43.757Z,87.31
2022-12-09T04:39:10.676Z,86.84
2022-12-09T04:41:37.678Z,87.39
2022-12-09T04:44:04.454Z,86.69
2022-12-09T04:46:31.190Z,86.51
2022-12-09T04:48:57.815Z,86.87
2022-12-09T04:51:24.697Z,86.62
2022-12-09T04:53:51.428Z,86.21
2022-12-09T04:56:20.728Z,86.36
2022-12-09T04:58:49.178Z,86.46
2022-12-09T05:01:20.479Z,86.19
2022-12-09T05:03:52.516Z,85.98
2022-12-09T05:06:21.397Z,86.38
2022-12-09T05:08:49.186Z,85.98
2022-12-09T05:11:17.191Z,86.04
2022-12-09T05:13:44.246Z,86.01
2022-12-09T05:16:16.858Z,86.33
2022-12-09T05:18:45.704Z,86.42
2022-12-09T05:21:17.966Z,85.92
2022-12-09T05:23:45.226Z,85.88
2022-12-09T05:26:16.575Z,86.24
2022-12-09T05:28:43.737Z,86.40
2022-12-09T05:31:15.608Z,86.15
2022-12-09T05:33:43.474Z,86.50
2022-12-09T05:36:11.955Z,86.70
2022-12-09T05:38:39.223Z,86.57
2022-12-09T05:41:06.601Z,86.69
2022-12-09T05:43:34.707Z,86.71
2022-12-09T05:46:02.137Z,86.89
2022-12-09T05:48:30.226Z,86.76
2022-12-09T05:51:21.777Z,86.87
2022-12-09T05:53:48.725Z,87.41
2022-12-09T05:56:17.248Z,87.56
2022-12-09T05:58:44.403Z,87.90
2022-12-09T06:01:11.978Z,87.89
2022-12-09T06:03:39.577Z,88.10
2022-12-09T06:06:12.581Z,88.29
2022-12-09T06:08:41.225Z,88.42
2022-12-09T06:11:20.355Z,88.49
2022-12-09T06:13:48.528Z,89.22
2022-12-09T06:16:19.691Z,89.31
2022-12-09T06:18:47.600Z,89.02
2022-12-09T06:21:16.403Z,89.77
2022-12-09T06:23:43.750Z,89.50
2022-12-09T06:26:25.284Z,89.50
2022-12-09T06:28:52.898Z,89.48
2022-12-09T06:31:20.495Z,90.01
2022-12-09T06:33:57.638Z,89.96
2022-12-09T06:36:27.341Z,89.57
2022-12-09T06:38:55.454Z,89.84
2022-12-09T06:41:22.573Z,89.70
2022-12-09T06:43:49.506Z,90.31
2022-12-09T06:46:19.504Z,90.39
2022-12-09T06:48:47.516Z,90.28
2022-12-09T06:51:15.823Z,90.16
2022-12-09T06:53:42.976Z,90.75
2022-12-09T06:56:12.676Z,89.78
2022-12-09T06:58:41.311Z,89.81
2022-12-09T07:01:17.342Z,90.18
2022-12-09T07:03:46.755Z,90.48
2022-12-09T07:06:26.793Z,88.86
2022-12-09T07:08:54.872Z,89.20
2022-12-09T07:11:21.796Z,89.18
2022-12-09T07:13:48.679Z,89.08
2022-12-09T07:16:15.612Z,88.80
2022-12-09T07:18:42.450Z,88.31
2022-12-09T07:21:13.905Z,88.19
2022-12-09T07:23:41.503Z,88.63
2022-12-09T07:26:08.800Z,88.09
2022-12-09T07:28:37.635Z,87.77
2022-12-09T07:31:04.558Z,87.54
2022-12-09T07:33:31.860Z,87.21
2022-12-09T07:36:00.125Z,87.88
2022-12-09T07:38:27.164Z,87.38
2022-12-09T07:40:54.177Z,86.68
2022-12-09T07:43:21.077Z,86.55
2022-12-09T07:45:49.457Z,86.71
2022-12-09T07:48:16.923Z,87.47
2022-12-09T07:50:44.258Z,86.78
2022-12-09T07:53:11.127Z,86.79
2022-12-09T07:55:37.993Z,87.04
2022-12-09T07:58:05.051Z,87.47
2022-12-09T08:00:31.667Z,87.86
2022-12-09T08:02:58.574Z,88.03
2022-12-09T08:05:25.642Z,88.30
2022-12-09T08:07:52.568Z,88.17
2022-12-09T08:10:19.739Z,88.33
2022-12-09T08:12:46.781Z,88.47
2022-12-09T08:15:14.450Z,88.66
2022-12-09T08:17:41.965Z,88.96
2022-12-09T08:20:09.952Z,88.92
2022-12-09T08:22:37.084Z,89.22
2022-12-09T08:25:04.787Z,89.31
2022-12-09T08:27:31.784Z,90.19
2022-12-09T08:29:58.677Z,90.20
2022-12-09T08:32:25.869Z,90.28
2022-12-09T08:34:53.221Z,90.23
2022-12-09T08:37:20.082Z,90.05
2022-12-09T08:39:47.194Z,90.52
2022-12-09T08:42:14.149Z,90.95
2022-12-09T08:44:40.881Z,90.62
2022-12-09T08:47:08.191Z,90.91
2022-12-09T08:49:35.617Z,91.49
2022-12-09T08:52:02.570Z,90.93
2022-12-09T08:54:29.500Z,91.22
2022-12-09T08:56:57.017Z,91.16
2022-12-09T08:59:23.927Z,91.21
2022-12-09T09:01:51.544Z,90.86
2022-12-09T09:04:20.525Z,90.90
2022-12-09T09:06:50.306Z,90.40
2022-12-09T09:09:17.902Z,90.29
2022-12-09T09:11:45.742Z,89.77
2022-12-09T09:14:14.219Z,90.03
2022-12-09T09:16:43.268Z,90.00
2022-12-09T09:19:16.563Z,89.09
2022-12-09T09:21:43.799Z,89.64
2022-12-09T09:24:12.855Z,89.33
2022-12-09T09:26:41.810Z,88.99
2022-12-09T09:29:11.802Z,89.07
2022-12-09T09:31:39.181Z,89.29
2022-12-09T09:34:06.057Z,88.04
2022-12-09T09:36:33.434Z,88.40
2022-12-09T09:39:00.408Z,88.29
2022-12-09T09:41:33.247Z,87.58
2022-12-09T09:44:01.089Z,87.31
2022-12-09T09:46:42.424Z,86.97
2022-12-09T09:49:20.710Z,85.81
2022-12-09T09:51:48.460Z,85.21
2022-12-09T09:54:16.056Z,84.48
2022-12-09T09:56:55.249Z,84.43
2022-12-09T09:59:31.073Z,84.12
2022-12-09T10:02:17.254Z,83.34
2022-12-09T10:05:03.580Z,83.54
2022-12-09T10:07:41.354Z,82.88
2022-12-09T10:10:33.576Z,82.35
2022-12-09T10:13:27.359Z,82.65
2022-12-09T10:16:01.084Z,82.42
2022-12-09T10:18:39.076Z,82.33
2022-12-09T10:21:20.914Z,82.20
2022-12-09T10:23:49.809Z,82.46
2022-12-09T10:26:29.204Z,81.89
2022-12-09T10:29:09.655Z,81.84
2022-12-09T10:31:36.636Z,81.70
2022-12-09T10:34:03.777Z,81.94
2022-12-09T10:36:35.756Z,82.05
2022-12-09T10:39:05.321Z,82.24
2022-12-09T10:42:07.023Z,81.64
2022-12-09T10:44:34.103Z,81.58
2022-12-09T10:47:07.072Z,81.32
2022-12-09T10:49:35.927Z,81.32
2022-12-09T10:52:05.340Z,81.44
2022-12-09T10:54:44.882Z,81.34
2022-12-09T10:57:11.679Z,80.70
2022-12-09T10:59:41.004Z,81.05
2022-12-09T11:02:07.983Z,81.24
2022-12-09T11:04:37.797Z,80.83
2022-12-09T11:07:08.060Z,80.71
2022-12-09T11:09:37.819Z,81.10
2022-12-09T11:12:07.554Z,81.75
2022-12-09T11:14:49.263Z,82.32
2022-12-09T11:17:18.815Z,82.43
2022-12-09T11:19:54.510Z,82.93
2022-12-09T11:22:40.232Z,83.52
2022-12-09T11:25:24.963Z,83.09
2022-12-09T11:27:56.401Z,83.75
2022-12-09T11:30:27.383Z,83.47
2022-12-09T11:33:08.774Z,83.45
2022-12-09T11:35:44.905Z,83.59
2022-12-09T11:38:33.235Z,83.08
2022-12-09T11:41:05.008Z,83.24
2022-12-09T11:43:49.930Z,83.38
2022-12-09T11:46:18.962Z,82.81
2022-12-09T11:48:56.343Z,83.34
2022-12-09T11:51:30.932Z,84.71
2022-12-09T11:54:04.395Z,84.33
2022-12-09T11:56:33.479Z,84.56
2022-12-09T11:59:13.595Z,84.62
2022-12-09T12:02:29.288Z,84.87
2022-12-09T12:05:05.786Z,85.07
2022-12-09T12:07:56.840Z,84.43
2022-12-09T12:10:27.641Z,84.30
2022-12-09T12:13:21.638Z,84.42
2022-12-09T12:16:09.977Z,84.39
2022-12-09T12:18:43.850Z,84.21
2022-12-09T12:21:28.377Z,85.29
2022-12-09T12:24:10.768Z,85.07
2022-12-09T12:26:59.130Z,85.26
2022-12-09T12:30:04.795Z,85.36
2022-12-09T12:32:48.921Z,85.19
2022-12-09T12:35:26.907Z,85.41
2022-12-09T12:38:23.274Z,86.04
2022-12-09T12:40:52.891Z,85.00
2022-12-09T12:44:15.072Z,85.58
2022-12-09T12:47:19.090Z,86.44
2022-12-09T12:50:09.890Z,86.56
2022-12-09T12:52:58.381Z,86.04
2022-12-09T12:55:43.803Z,86.08
2022-12-09T12:58:34.082Z,86.34
2022-12-09T13:01:09.889Z,86.97
2022-12-09T13:04:13.471Z,87.07
2022-12-09T13:06:52.244Z,87.05
2022-12-09T13:09:49.554Z,87.06
2022-12-09T13:12:45.294Z,86.45
2022-12-09T13:15:18.089Z,86.90
2022-12-09T13:17:47.005Z,86.69
2022-12-09T13:20:20.805Z,87.22
2022-12-09T13:22:47.269Z,86.91
2022-12-09T13:25:41.640Z,87.88
2022-12-09T13:28:10.863Z,86.99
2022-12-09T13:30:53.869Z,87.14
2022-12-09T13:33:35.961Z,87.58
2022-12-09T13:36:13.579Z,87.57
2022-12-09T13:38:42.746Z,87.31
2022-12-09T13:41:31.401Z,87.73
2022-12-09T13:44:05.579Z,87.63
2022-12-09T13:46:33.458Z,87.32
2022-12-09T13:49:10.273Z,87.67
2022-12-09T13:51:49.000Z,87.93
2022-12-09T13:54:18.593Z,87.77
2022-12-09T13:57:05.150Z,88.25
2022-12-09T13:59:39.870Z,87.77
2022-12-09T14:02:42.741Z,88.05
2022-12-09T14:05:26.219Z,88.24
2022-12-09T14:08:08.432Z,88.42
2022-12-09T14:10:36.403Z,88.76
2022-12-09T14:13:23.564Z,88.78
2022-12-09T14:16:14.609Z,88.67
2022-12-09T14:18:41.779Z,88.76
2022-12-09T14:21:17.424Z,89.00
2022-12-09T14:24:09.008Z,88.85
2022-12-09T14:26:45.840Z,88.64
2022-12-09T14:29:44.254Z,88.67
2022-12-09T14:32:31.616Z,89.25
2022-12-09T14:35:06.854Z,89.37
2022-12-09T14:37:40.063Z,89.09
2022-12-09T14:40:15.527Z,88.72
2022-12-09T14:42:57.224Z,88.75
2022-12-09T14:45:35.887Z,89.04
2022-12-09T14:48:10.385Z,88.80
2022-12-09T14:50:38.795Z,89.25
2022-12-09T14:53:17.823Z,88.63
2022-12-09T14:55:44.590Z,88.75
2022-12-09T14:58:20.313Z,88.83
2022-12-09T15:00:47.373Z,89.27
2022-12-09T15:03:34.339Z,89.17
2022-12-09T15:06:06.617Z,89.31
2022-12-09T15:08:41.130Z,88.97
2022-12-09T15:11:20.678Z,89.35
2022-12-09T15:13:50.816Z,89.27
2022-12-09T15:16:21.251Z,89.31
2022-12-09T15:18:49.749Z,88.99
2022-12-09T15:21:30.658Z,89.42
2022-12-09T15:23:59.406Z,89.03
2022-12-09T15:26:27.729Z,88.61
2022-12-09T15:28:59.634Z,89.02
2022-12-09T15:31:28.993Z,89.51
2022-12-09T15:33:58.349Z,89.04
2022-12-09T15:36:32.774Z,89.47
2022-12-09T15:39:04.875Z,89.55
2022-12-09T15:41:59.025Z,89.52
2022-12-09T15:44:26.717Z,89.54
2022-12-09T15:46:57.485Z,89.98
2022-12-09T15:49:30.234Z,89.30
2022-12-09T15:51:57.157Z,89.30
2022-12-09T15:54:30.506Z,89.73
2022-12-09T15:57:02.133Z,89.49
2022-12-09T15:59:52.366Z,89.53
2022-12-09T16:02:26.996Z,89.67
2022-12-09T16:04:56.357Z,89.79
2022-12-09T16:07:25.273Z,90.10
2022-12-09T16:10:12.007Z,89.68
2022-12-09T16:12:40.413Z,89.74
2022-12-09T16:15:10.066Z,89.73
2022-12-09T16:17:58.335Z,89.85
2022-12-09T16:20:40.118Z,89.76
2022-12-09T16:23:35.511Z,90.03
2022-12-09T16:26:06.981Z,89.88
2022-12-09T16:28:34.133Z,89.80
2022-12-09T16:31:04.024Z,90.14
2022-12-09T16:33:37.745Z,89.46
2022-12-09T16:36:06.904Z,89.84
2022-12-09T16:38:35.696Z,90.17
2022-12-09T16:41:05.902Z,89.96
2022-12-09T16:43:33.948Z,89.63
2022-12-09T16:46:22.702Z,89.92
2022-12-09T16:48:49.652Z,89.70
2022-12-09T16:51:23.056Z,90.12
2022-12-09T16:53:51.889Z,89.95
2022-12-09T16:56:22.971Z,90.14
2022-12-09T16:58:49.579Z,90.04
2022-12-09T17:01:18.695Z,89.60
2022-12-09T17:04:17.694Z,90.12
2022-12-09T17:06:44.378Z,90.19
2022-12-09T17:09:12.021Z,90.01
2022-12-09T17:11:39.207Z,90.12
2022-12-09T17:14:07.712Z,90.72
2022-12-09T17:16:38.146Z,90.52
2022-12-09T17:19:05.815Z,90.47
2022-12-09T17:21:32.450Z,90.79
2022-12-09T17:23:59.026Z,90.60
2022-12-09T17:26:25.630Z,90.67
2022-12-09T17:28:56.808Z,90.22
2022-12-09T17:31:28.156Z,90.90
2022-12-09T17:33:56.892Z,90.40
2022-12-09T17:36:23.554Z,90.33
2022-12-09T17:38:50.159Z,90.40
2022-12-09T17:41:20.697Z,90.70
2022-12-09T17:43:47.607Z,90.80
2022-12-09T17:46:15.221Z,90.38
2022-12-09T17:48:42.016Z,90.39
2022-12-09T17:51:18.073Z,90.28
2022-12-09T17:53:44.973Z,90.53
2022-12-09T17:56:17.421Z,90.56
2022-12-09T17:58:44.284Z,90.59
2022-12-09T18:01:22.861Z,90.28
2022-12-09T18:03:59.399Z,90.37
2022-12-09T18:06:34.356Z,90.42
2022-12-09T18:09:05.589Z,90.85
2022-12-09T18:11:32.835Z,90.43
2022-12-09T18:13:59.977Z,90.82
2022-12-09T18:16:27.032Z,90.41
2022-12-09T18:18:54.105Z,90.55
2022-12-09T18:21:20.973Z,90.99
2022-12-09T18:23:48.405Z,91.22
2022-12-09T18:26:17.899Z,90.99
2022-12-09T18:28:44.720Z,90.94
2022-12-09T18:31:14.468Z,90.89
2022-12-09T18:33:41.728Z,90.96
2022-12-09T18:36:10.974Z,90.49
2022-12-09T18:38:38.701Z,90.29
2022-12-09T18:41:11.616Z,90.76
2022-12-09T18:43:40.608Z,90.91
2022-12-09T18:46:10.965Z,90.64
2022-12-09T18:48:38.511Z,90.88
2022-12-09T18:51:08.571Z,90.36
2022-12-09T18:53:35.265Z,90.13
2022-12-09T18:56:05.836Z,90.79
2022-12-09T18:59:04.262Z,90.66
2022-12-09T19:01:25.748Z,90.82
2022-12-09T19:03:54.315Z,90.83
2022-12-09T19:06:27.072Z,90.50
2022-12-09T19:08:57.867Z,90.75
2022-12-09T19:11:26.846Z,90.99
2022-12-09T19:13:54.149Z,90.91
2022-12-09T19:16:21.877Z,90.67
2022-12-09T19:18:48.806Z,90.63
2022-12-09T19:21:18.037Z,91.19
2022-12-09T19:23:45.785Z,90.89
2022-12-09T19:26:25.079Z,90.88
2022-12-09T19:28:55.199Z,90.47
2022-12-09T19:31:28.065Z,90.72
2022-12-09T19:34:07.544Z,90.64
2022-12-09T19:36:34.317Z,90.74
2022-12-09T19:39:02.135Z,91.12
2022-12-09T19:41:28.820Z,90.40
2022-12-09T19:43:57.073Z,90.55
2022-12-09T19:46:24.304Z,90.15
2022-12-09T19:48:50.996Z,90.33
2022-12-09T19:51:19.001Z,90.17
2022-12-09T19:53:45.926Z,90.42
2022-12-09T19:56:15.952Z,89.67
2022-12-09T19:58:43.680Z,89.55
2022-12-09T20:01:20.602Z,90.00
2022-12-09T20:03:49.463Z,89.72
2022-12-09T20:06:18.235Z,89.52
2022-12-09T20:08:45.431Z,89.50
2022-12-09T20:11:18.112Z,89.62
2022-12-09T20:13:45.621Z,89.86
2022-12-09T20:16:16.271Z,89.59
2022-12-09T20:18:43.417Z,89.66
2022-12-09T20:21:11.833Z,90.08
2022-12-09T20:23:40.195Z,89.75
2022-12-09T20:26:21.433Z,89.25
2022-12-09T20:28:49.687Z,89.66
2022-12-09T20:31:22.771Z,89.77
2022-12-09T20:33:54.297Z,89.40
2022-12-09T20:36:22.540Z,89.72
2022-12-09T20:38:54.815Z,89.40
2022-12-09T20:41:24.740Z,90.09
2022-12-09T20:43:53.893Z,89.64
2022-12-09T20:46:23.796Z,90.09
2022-12-09T20:48:50.889Z,89.87
2022-12-09T20:51:30.403Z,89.57
2022-12-09T20:53:57.569Z,89.44
2022-12-09T20:56:25.947Z,90.21
2022-12-09T20:58:53.788Z,88.91
2022-12-09T21:01:23.249Z,88.12
2022-12-09T21:03:51.222Z,88.10
2022-12-09T21:06:19.447Z,88.25
2022-12-09T21:08:46.633Z,88.03
2022-12-09T21:11:16.767Z,88.24
2022-12-09T21:13:46.058Z,87.96
2022-12-09T21:16:20.364Z,88.13
2022-12-09T21:18:51.754Z,87.74
2022-12-09T21:21:20.107Z,87.68
2022-12-09T21:23:47.515Z,87.28
2022-12-09T21:26:19.043Z,87.08
2022-12-09T21:28:46.927Z,87.04
2022-12-09T21:31:19.580Z,86.95
2022-12-09T21:33:48.212Z,87.22
2022-12-09T21:36:20.675Z,87.26
2022-12-09T21:38:47.807Z,87.22
2022-12-09T21:41:20.009Z,86.61
2022-12-09T21:43:46.868Z,87.07
2022-12-09T21:46:22.164Z,86.87
2022-12-09T21:48:52.425Z,87.10
2022-12-09T21:51:20.182Z,87.24
2022-12-09T21:53:48.138Z,87.25
2022-12-09T21:56:16.325Z,87.08
2022-12-09T21:58:44.308Z,86.46
2022-12-09T22:01:20.303Z,86.28
2022-12-09T22:03:47.981Z,85.86
2022-12-09T22:06:16.130Z,84.89
2022-12-09T22:08:43.615Z,84.33
2022-12-09T22:11:12.259Z,85.15
2022-12-09T22:13:39.793Z,85.38
2022-12-09T22:16:12.076Z,85.09
2022-12-09T22:18:39.529Z,85.56
2022-12-09T22:21:25.679Z,85.65
2022-12-09T22:23:58.274Z,85.15
2022-12-09T22:26:25.713Z,84.43
2022-12-09T22:28:52.622Z,85.48
2022-12-09T22:31:28.971Z,84.97
2022-12-09T22:33:59.084Z,85.79
2022-12-09T22:36:25.924Z,85.56
2022-12-09T22:38:53.217Z,84.43
2022-12-09T22:41:23.804Z,83.78
2022-12-09T22:43:51.020Z,83.62
2022-12-09T22:46:20.545Z,84.07
2022-12-09T22:48:47.995Z,83.06
2022-12-09T22:51:19.366Z,83.82
2022-12-09T22:53:48.040Z,83.34
2022-12-09T22:56:14.842Z,82.64
2022-12-09T22:58:41.549Z,82.38
2022-12-09T23:01:17.786Z,82.93
2022-12-09T23:03:44.759Z,83.11
2022-12-09T23:06:12.221Z,82.53
2022-12-09T23:08:41.117Z,83.25
2022-12-09T23:11:12.046Z,83.08
2022-12-09T23:13:41.183Z,83.54
2022-12-09T23:16:09.307Z,83.57
2022-12-09T23:18:36.226Z,83.95
2022-12-09T23:21:11.670Z,83.95
2022-12-09T23:23:38.953Z,82.82
2022-12-09T23:26:08.360Z,83.44
2022-12-09T23:28:40.416Z,83.86
2022-12-09T23:31:10.210Z,83.29
2022-12-09T23:33:38.783Z,83.43
2022-12-09T23:36:20.425Z,83.72
2022-12-09T23:38:48.352Z,83.41
2022-12-09T23:41:19.964Z,83.10
2022-12-09T23:43:48.110Z,83.38
2022-12-09T23:46:17.825Z,83.57
2022-12-09T23:48:46.026Z,83.04
2022-12-09T23:51:15.724Z,83.12
2022-12-09T23:53:43.957Z,83.82
2022-12-09T23:56:13.182Z,82.57
2022-12-09T23:58:40.608Z,83.56
